createdAt,value
2018-05-23T00:00:33.378Z,1011.14
2018-05-23T00:01:42.805Z,1011.2
2018-05-23T00:02:52.505Z,1011.15
2018-05-23T00:04:01.682Z,1011.17
2018-05-23T00:05:11.621Z,1011.17
2018-05-23T00:06:20.765Z,1011.19
2018-05-23T00:07:29.942Z,1011.15
2018-05-23T00:08:39.615Z,1011.14
2018-05-23T00:09:48.781Z,1011.18
2018-05-23T00:10:58.220Z,1011.15
2018-05-23T00:12:07.408Z,1011.17
2018-05-23T00:13:17.096Z,1011.16
2018-05-23T00:14:26.002Z,1011.15
2018-05-23T00:15:35.158Z,1011.16
2018-05-23T00:16:44.075Z,1011.13
2018-05-23T00:17:53.605Z,1011.13
2018-05-23T00:19:03.294Z,1011.17
2018-05-23T00:20:12.488Z,1011.15
2018-05-23T00:21:22.434Z,1011.12
2018-05-23T00:22:32.135Z,1011.12
2018-05-23T00:23:41.564Z,1011.12
2018-05-23T00:24:50.204Z,1011.14
2018-05-23T00:25:59.371Z,1011.09
2018-05-23T00:27:09.100Z,1011.18
2018-05-23T00:28:18.540Z,1011.18
2018-05-23T00:29:28.215Z,1011.21
2018-05-23T00:30:37.129Z,1011.27
2018-05-23T00:31:46.818Z,1011.25
2018-05-23T00:32:56.232Z,1011.28
2018-05-23T00:34:05.391Z,1011.29
2018-05-23T00:35:15.072Z,1011.29
2018-05-23T00:36:23.710Z,1011.26
2018-05-23T00:37:33.399Z,1011.29
2018-05-23T00:38:42.554Z,1011.28
2018-05-23T00:39:52.500Z,1011.25
2018-05-23T00:41:02.162Z,1011.27
2018-05-23T00:42:11.839Z,1011.3
2018-05-23T00:43:21.519Z,1011.26
2018-05-23T00:44:30.691Z,1011.27
2018-05-23T00:45:40.371Z,1011.28
2018-05-23T00:46:50.477Z,1011.29
2018-05-23T00:47:59.639Z,1011.28
2018-05-23T00:49:09.065Z,1011.31
2018-05-23T00:50:18.270Z,1011.34
2018-05-23T00:51:28.330Z,1011.34
2018-05-23T00:52:38.371Z,1011.32
2018-05-23T00:53:47.798Z,1011.33
2018-05-23T00:54:57.479Z,1011.32
2018-05-23T00:56:06.991Z,1011.3
2018-05-23T00:57:16.163Z,1011.33
2018-05-23T00:58:25.840Z,1011.33
2018-05-23T00:59:35.010Z,1011.29
2018-05-23T01:00:43.901Z,1011.32
2018-05-23T01:01:53.325Z,1011.34
2018-05-23T01:03:02.516Z,1011.33
2018-05-23T01:04:11.936Z,1011.31
2018-05-23T01:05:21.346Z,1011.37
2018-05-23T01:06:30.503Z,1011.36
2018-05-23T01:07:40.191Z,1011.34
2018-05-23T01:08:49.644Z,1011.35
2018-05-23T01:09:59.498Z,1011.34
2018-05-23T01:11:08.663Z,1011.34
2018-05-23T01:12:18.074Z,1011.3
2018-05-23T01:13:27.789Z,1011.27
2018-05-23T01:14:36.941Z,1011.28
2018-05-23T01:15:46.103Z,1011.26
2018-05-23T01:16:55.815Z,1011.27
2018-05-23T01:18:04.986Z,1011.26
2018-05-23T01:19:14.188Z,1011.25
2018-05-23T01:20:23.619Z,1011.25
2018-05-23T01:21:32.531Z,1011.21
2018-05-23T01:22:41.942Z,1011.26
2018-05-23T01:23:51.111Z,1011.23
2018-05-23T01:25:00.558Z,1011.25
2018-05-23T01:26:09.703Z,1011.22
2018-05-23T01:27:18.870Z,1011.25
2018-05-23T01:28:28.094Z,1011.22
2018-05-23T01:29:37.801Z,1011.26
2018-05-23T01:30:46.975Z,1011.23
2018-05-23T01:31:56.917Z,1011.19
2018-05-23T01:33:06.092Z,1011.22
2018-05-23T01:34:15.824Z,1011.19
2018-05-23T01:35:25.001Z,1011.2
2018-05-23T01:36:34.277Z,1011.19
2018-05-23T01:37:43.728Z,1011.12
2018-05-23T01:38:53.156Z,1011.13
2018-05-23T01:40:02.586Z,1011.13
2018-05-23T01:41:12.278Z,1011.13
2018-05-23T01:42:21.965Z,1011.07
2018-05-23T01:43:31.133Z,1011.07
2018-05-23T01:44:40.624Z,1011.07
2018-05-23T01:45:49.541Z,1011.08
2018-05-23T01:46:58.953Z,1011.06
2018-05-23T01:48:07.873Z,1011.08
2018-05-23T01:49:17.299Z,1011.14
2018-05-23T01:50:26.479Z,1011.12
2018-05-23T01:51:35.906Z,1011.15
2018-05-23T01:52:45.071Z,1011.16
2018-05-23T01:53:54.514Z,1011.16
2018-05-23T01:55:04.210Z,1011.2
2018-05-23T01:56:13.372Z,1011.19
2018-05-23T01:57:22.781Z,1011.21
2018-05-23T01:58:32.521Z,1011.14
2018-05-23T01:59:41.438Z,1011.21
2018-05-23T02:00:50.890Z,1011.2
2018-05-23T02:02:00.350Z,1011.22
2018-05-23T02:03:10.390Z,1011.21
2018-05-23T02:04:20.063Z,1011.26
2018-05-23T02:05:29.244Z,1011.22
2018-05-23T02:06:38.950Z,1011.22
2018-05-23T02:07:48.136Z,1011.2
2018-05-23T02:08:57.845Z,1011.19
2018-05-23T02:10:07.005Z,1011.21
2018-05-23T02:11:16.942Z,1011.2
2018-05-23T02:12:26.353Z,1011.2
2018-05-23T02:13:35.775Z,1011.19
2018-05-23T02:14:44.968Z,1011.14
2018-05-23T02:15:54.410Z,1011.17
2018-05-23T02:17:03.357Z,1011.18
2018-05-23T02:18:12.517Z,1011.2
2018-05-23T02:19:22.213Z,1011.2
2018-05-23T02:20:31.646Z,1011.24
2018-05-23T02:21:40.829Z,1011.25
2018-05-23T02:22:50.252Z,1011.24
2018-05-23T02:23:59.679Z,1011.24
2018-05-23T02:25:09.361Z,1011.24
2018-05-23T02:26:18.791Z,1011.27
2018-05-23T02:27:27.979Z,1011.26
2018-05-23T02:28:36.903Z,1011.27
2018-05-23T02:29:46.054Z,1011.29
2018-05-23T02:30:55.217Z,1011.3
2018-05-23T02:32:04.675Z,1011.27
2018-05-23T02:33:14.357Z,1011.28
2018-05-23T02:34:23.558Z,1011.3
2018-05-23T02:35:33.005Z,1011.29
2018-05-23T02:36:42.949Z,1011.26
2018-05-23T02:37:52.629Z,1011.27
2018-05-23T02:39:02.315Z,1011.26
2018-05-23T02:40:11.520Z,1011.26
2018-05-23T02:41:21.479Z,1011.25
2018-05-23T02:42:31.183Z,1011.27
2018-05-23T02:43:40.618Z,1011.27
2018-05-23T02:44:49.814Z,1011.28
2018-05-23T02:45:59.287Z,1011.28
2018-05-23T02:47:08.444Z,1011.29
2018-05-23T02:48:18.201Z,1011.33
2018-05-23T02:49:27.648Z,1011.34
2018-05-23T02:50:37.602Z,1011.35
2018-05-23T02:51:47.280Z,1011.36
2018-05-23T02:52:56.446Z,1011.4
2018-05-23T02:54:05.870Z,1011.37
2018-05-23T02:55:15.585Z,1011.36
2018-05-23T02:56:25.036Z,1011.38
2018-05-23T02:57:34.747Z,1011.38
2018-05-23T02:58:44.476Z,1011.4
2018-05-23T02:59:54.412Z,1011.44
2018-05-23T03:01:03.592Z,1011.43
2018-05-23T03:02:13.577Z,1011.41
2018-05-23T03:03:23.081Z,1011.46
2018-05-23T03:04:32.537Z,1011.42
2018-05-23T03:05:42.042Z,1011.45
2018-05-23T03:06:51.715Z,1011.47
2018-05-23T03:08:01.165Z,1011.47
2018-05-23T03:09:10.597Z,1011.54
2018-05-23T03:10:20.531Z,1011.51
2018-05-23T03:11:29.947Z,1011.55
2018-05-23T03:12:39.398Z,1011.53
2018-05-23T03:13:48.561Z,1011.56
2018-05-23T03:14:57.743Z,1011.54
2018-05-23T03:16:07.422Z,1011.53
2018-05-23T03:17:16.576Z,1011.52
2018-05-23T03:18:25.992Z,1011.55
2018-05-23T03:19:35.145Z,1011.59
2018-05-23T03:20:44.563Z,1011.55
2018-05-23T03:21:53.993Z,1011.58
2018-05-23T03:23:03.863Z,1011.61
2018-05-23T03:24:12.768Z,1011.61
2018-05-23T03:25:22.182Z,1011.62
2018-05-23T03:26:31.602Z,1011.63
2018-05-23T03:27:41.034Z,1011.62
2018-05-23T03:28:50.189Z,1011.63
2018-05-23T03:29:59.332Z,1011.61
2018-05-23T03:31:07.984Z,1011.62
2018-05-23T03:32:17.429Z,1011.6
2018-05-23T03:33:26.946Z,1011.58
2018-05-23T03:34:36.569Z,1011.6
2018-05-23T03:35:46.245Z,1011.61
2018-05-23T03:36:55.153Z,1011.61
2018-05-23T03:38:04.314Z,1011.61
2018-05-23T03:39:13.213Z,1011.65
2018-05-23T03:40:22.680Z,1011.64
2018-05-23T03:41:31.580Z,1011.65
2018-05-23T03:42:41.003Z,1011.65
2018-05-23T03:43:50.955Z,1011.63
2018-05-23T03:44:59.616Z,1011.61
2018-05-23T03:46:08.782Z,1011.6
2018-05-23T03:47:18.742Z,1011.6
2018-05-23T03:48:27.969Z,1011.59
2018-05-23T03:49:37.389Z,1011.6
2018-05-23T03:50:46.828Z,1011.6
2018-05-23T03:51:55.765Z,1011.64
2018-05-23T03:53:05.204Z,1011.59
2018-05-23T03:54:14.109Z,1011.59
2018-05-23T03:55:23.637Z,1011.62
2018-05-23T03:56:33.379Z,1011.64
2018-05-23T03:57:42.826Z,1011.63
2018-05-23T03:58:52.236Z,1011.64
2018-05-23T04:00:01.642Z,1011.66
2018-05-23T04:01:11.587Z,1011.68
2018-05-23T04:02:21.022Z,1011.66
2018-05-23T04:03:30.451Z,1011.69
2018-05-23T04:04:40.130Z,1011.67
2018-05-23T04:05:49.670Z,1011.72
2018-05-23T04:06:59.598Z,1011.74
2018-05-23T04:08:08.764Z,1011.75
2018-05-23T04:09:17.933Z,1011.75
2018-05-23T04:10:27.692Z,1011.79
2018-05-23T04:11:37.189Z,1011.8
2018-05-23T04:12:46.100Z,1011.82
2018-05-23T04:13:55.794Z,1011.81
2018-05-23T04:15:04.957Z,1011.84
2018-05-23T04:16:13.880Z,1011.84
2018-05-23T04:17:23.052Z,1011.87
2018-05-23T04:18:32.481Z,1011.88
2018-05-23T04:19:42.168Z,1011.9
2018-05-23T04:20:51.336Z,1011.91
2018-05-23T04:22:00.785Z,1011.93
2018-05-23T04:23:09.960Z,1011.91
2018-05-23T04:24:19.405Z,1011.93
2018-05-23T04:25:28.302Z,1011.91
2018-05-23T04:26:37.220Z,1011.91
2018-05-23T04:27:46.385Z,1011.94
2018-05-23T04:28:56.078Z,1011.94
2018-05-23T04:30:05.523Z,1011.93
2018-05-23T04:31:14.442Z,1011.91
2018-05-23T04:32:23.908Z,1011.95
2018-05-23T04:33:33.605Z,1012
2018-05-23T04:34:42.774Z,1011.91
2018-05-23T04:35:52.316Z,1011.95
2018-05-23T04:37:01.988Z,1011.93
2018-05-23T04:38:11.494Z,1011.98
2018-05-23T04:39:20.232Z,1011.99
2018-05-23T04:40:29.564Z,1011.98
2018-05-23T04:41:38.505Z,1012.04
2018-05-23T04:42:47.930Z,1012.05
2018-05-23T04:43:57.630Z,1012.03
2018-05-23T04:45:06.842Z,1012.03
2018-05-23T04:46:16.281Z,1012.08
2018-05-23T04:47:26.056Z,1012.04
2018-05-23T04:48:35.522Z,1012.07
2018-05-23T04:49:45.746Z,1012.05
2018-05-23T04:50:55.194Z,1012.05
2018-05-23T04:52:04.398Z,1012.07
2018-05-23T04:53:13.828Z,1012.09
2018-05-23T04:54:23.257Z,1012.05
2018-05-23T04:55:32.942Z,1012.09
2018-05-23T04:56:42.129Z,1012.08
2018-05-23T04:57:51.826Z,1012.12
2018-05-23T04:59:01.521Z,1012.16
2018-05-23T05:00:10.950Z,1012.17
2018-05-23T05:01:20.664Z,1012.17
2018-05-23T05:02:30.088Z,1012.19
2018-05-23T05:03:39.518Z,1012.2
2018-05-23T05:04:49.233Z,1012.19
2018-05-23T05:05:58.678Z,1012.21
2018-05-23T05:07:07.889Z,1012.25
2018-05-23T05:08:17.344Z,1012.28
2018-05-23T05:09:26.447Z,1012.3
2018-05-23T05:10:35.650Z,1012.3
2018-05-23T05:11:44.844Z,1012.3
2018-05-23T05:12:54.521Z,1012.31
2018-05-23T05:14:03.979Z,1012.36
2018-05-23T05:15:13.942Z,1012.37
2018-05-23T05:16:23.121Z,1012.37
2018-05-23T05:17:32.541Z,1012.36
2018-05-23T05:18:41.966Z,1012.37
2018-05-23T05:19:52.008Z,1012.38
2018-05-23T05:21:01.732Z,1012.43
2018-05-23T05:22:11.178Z,1012.45
2018-05-23T05:23:20.379Z,1012.49
2018-05-23T05:24:29.553Z,1012.5
2018-05-23T05:25:38.828Z,1012.51
2018-05-23T05:26:47.995Z,1012.51
2018-05-23T05:27:57.692Z,1012.54
2018-05-23T05:29:06.849Z,1012.59
2018-05-23T05:30:16.078Z,1012.58
2018-05-23T05:31:25.768Z,1012.64
2018-05-23T05:32:35.193Z,1012.66
2018-05-23T05:33:44.103Z,1012.67
2018-05-23T05:34:53.540Z,1012.69
2018-05-23T05:36:02.751Z,1012.71
2018-05-23T05:37:11.668Z,1012.74
2018-05-23T05:38:20.831Z,1012.75
2018-05-23T05:39:30.018Z,1012.78
2018-05-23T05:40:39.722Z,1012.78
2018-05-23T05:41:48.876Z,1012.82
2018-05-23T05:42:58.308Z,1012.82
2018-05-23T05:44:07.475Z,1012.85
2018-05-23T05:45:16.654Z,1012.86
2018-05-23T05:46:26.106Z,1012.81
2018-05-23T05:47:35.560Z,1012.85
2018-05-23T05:48:44.744Z,1012.87
2018-05-23T05:49:53.926Z,1012.91
2018-05-23T05:51:03.101Z,1012.93
2018-05-23T05:52:12.534Z,1012.95
2018-05-23T05:53:21.989Z,1012.96
2018-05-23T05:54:31.454Z,1013.01
2018-05-23T05:55:41.395Z,1013.02
2018-05-23T05:56:51.100Z,1013.03
2018-05-23T05:58:00.775Z,1013.09
2018-05-23T05:59:09.797Z,1013.08
2018-05-23T06:00:19.484Z,1013.09
2018-05-23T06:01:29.192Z,1013.11
2018-05-23T06:02:38.899Z,1013.11
2018-05-23T06:03:48.362Z,1013.13
2018-05-23T06:04:57.790Z,1013.15
2018-05-23T06:06:06.708Z,1013.16
2018-05-23T06:07:16.131Z,1013.16
2018-05-23T06:08:25.847Z,1013.17
2018-05-23T06:09:35.047Z,1013.2
2018-05-23T06:10:44.929Z,1013.22
2018-05-23T06:11:54.101Z,1013.21
2018-05-23T06:13:03.048Z,1013.22
2018-05-23T06:14:12.244Z,1013.24
2018-05-23T06:15:21.464Z,1013.21
2018-05-23T06:16:31.160Z,1013.24
2018-05-23T06:17:40.618Z,1013.25
2018-05-23T06:18:50.345Z,1013.24
2018-05-23T06:19:59.273Z,1013.23
2018-05-23T06:21:08.452Z,1013.22
2018-05-23T06:22:18.471Z,1013.24
2018-05-23T06:23:27.899Z,1013.27
2018-05-23T06:24:37.348Z,1013.25
2018-05-23T06:25:46.533Z,1013.27
2018-05-23T06:26:55.722Z,1013.27
2018-05-23T06:28:05.681Z,1013.26
2018-05-23T06:29:14.844Z,1013.26
2018-05-23T06:30:24.118Z,1013.27
2018-05-23T06:31:34.403Z,1013.27
2018-05-23T06:32:44.103Z,1013.29
2018-05-23T06:33:53.543Z,1013.29
2018-05-23T06:35:02.960Z,1013.33
2018-05-23T06:36:12.385Z,1013.3
2018-05-23T06:37:22.151Z,1013.31
2018-05-23T06:38:31.870Z,1013.3
2018-05-23T06:39:41.579Z,1013.31
2018-05-23T06:40:51.309Z,1013.32
2018-05-23T06:42:01.038Z,1013.36
2018-05-23T06:43:10.216Z,1013.33
2018-05-23T06:44:19.435Z,1013.35
2018-05-23T06:45:28.610Z,1013.36
2018-05-23T06:46:38.342Z,1013.37
2018-05-23T06:47:48.269Z,1013.39
2018-05-23T06:48:57.468Z,1013.44
2018-05-23T06:50:07.024Z,1013.43
2018-05-23T06:51:16.218Z,1013.41
2018-05-23T06:52:25.643Z,1013.4
2018-05-23T06:53:34.564Z,1013.42
2018-05-23T06:54:43.738Z,1013.4
2018-05-23T06:55:52.925Z,1013.43
2018-05-23T06:57:02.100Z,1013.38
2018-05-23T06:58:11.542Z,1013.43
2018-05-23T06:59:20.739Z,1013.42
2018-05-23T07:00:29.909Z,1013.46
2018-05-23T07:01:39.350Z,1013.46
2018-05-23T07:02:48.273Z,1013.46
2018-05-23T07:03:57.453Z,1013.43
2018-05-23T07:05:07.182Z,1013.49
2018-05-23T07:06:16.376Z,1013.47
2018-05-23T07:07:25.539Z,1013.49
2018-05-23T07:08:34.956Z,1013.49
2018-05-23T07:09:44.145Z,1013.52
2018-05-23T07:10:53.589Z,1013.52
2018-05-23T07:12:02.847Z,1013.51
2018-05-23T07:13:11.751Z,1013.53
2018-05-23T07:14:20.955Z,1013.53
2018-05-23T07:15:30.126Z,1013.58
2018-05-23T07:16:38.786Z,1013.57
2018-05-23T07:17:48.031Z,1013.6
2018-05-23T07:18:58.447Z,1013.62
2018-05-23T07:20:07.631Z,1013.61
2018-05-23T07:21:17.304Z,1013.65
2018-05-23T07:22:27.253Z,1013.63
2018-05-23T07:23:36.738Z,1013.64
2018-05-23T07:24:46.187Z,1013.62
2018-05-23T07:25:55.134Z,1013.65
2018-05-23T07:27:04.010Z,1013.69
2018-05-23T07:28:13.437Z,1013.7
2018-05-23T07:29:22.874Z,1013.71
2018-05-23T07:30:32.162Z,1013.7
2018-05-23T07:31:42.258Z,1013.7
2018-05-23T07:32:52.034Z,1013.73
2018-05-23T07:34:01.267Z,1013.7
2018-05-23T07:35:10.215Z,1013.73
2018-05-23T07:36:19.677Z,1013.73
2018-05-23T07:37:29.135Z,1013.74
2018-05-23T07:38:38.071Z,1013.72
2018-05-23T07:39:47.647Z,1013.74
2018-05-23T07:40:56.588Z,1013.73
2018-05-23T07:42:06.055Z,1013.74
2018-05-23T07:43:15.563Z,1013.73
2018-05-23T07:44:25.005Z,1013.73
2018-05-23T07:45:34.498Z,1013.77
2018-05-23T07:46:44.244Z,1013.72
2018-05-23T07:47:53.701Z,1013.75
2018-05-23T07:49:03.159Z,1013.73
2018-05-23T07:50:12.624Z,1013.73
2018-05-23T07:51:22.048Z,1013.74
2018-05-23T07:52:31.502Z,1013.8
2018-05-23T07:53:40.976Z,1013.77
2018-05-23T07:54:49.707Z,1013.73
2018-05-23T07:55:59.172Z,1013.77
2018-05-23T07:57:08.384Z,1013.81
2018-05-23T07:58:17.900Z,1013.8
2018-05-23T07:59:27.362Z,1013.84
2018-05-23T08:00:36.321Z,1013.86
2018-05-23T08:01:45.273Z,1013.84
2018-05-23T08:02:54.489Z,1013.84
2018-05-23T08:04:03.666Z,1013.85
2018-05-23T08:05:12.920Z,1013.85
2018-05-23T08:06:22.374Z,1013.88
2018-05-23T08:07:31.819Z,1013.86
2018-05-23T08:08:40.478Z,1013.88
2018-05-23T08:09:49.925Z,1013.88
2018-05-23T08:10:59.118Z,1013.89
2018-05-23T08:12:08.638Z,1013.87
2018-05-23T08:13:17.838Z,1013.86
2018-05-23T08:14:27.799Z,1013.88
2018-05-23T08:15:36.458Z,1013.9
2018-05-23T08:16:45.914Z,1013.91
2018-05-23T08:17:55.078Z,1013.91
2018-05-23T08:19:04.792Z,1013.93
2018-05-23T08:20:14.047Z,1013.96
2018-05-23T08:21:23.749Z,1013.94
2018-05-23T08:22:33.446Z,1013.97
2018-05-23T08:23:42.351Z,1013.94
2018-05-23T08:24:51.538Z,1013.92
2018-05-23T08:26:01.507Z,1014
2018-05-23T08:27:10.950Z,1013.98
2018-05-23T08:28:20.380Z,1013.99
2018-05-23T08:29:29.819Z,1014
2018-05-23T08:30:39.279Z,1013.99
2018-05-23T08:31:48.986Z,1013.95
2018-05-23T08:32:58.155Z,1013.97
2018-05-23T08:34:07.356Z,1013.96
2018-05-23T08:35:16.525Z,1013.99
2018-05-23T08:36:26.310Z,1013.95
2018-05-23T08:37:35.830Z,1013.95
2018-05-23T08:38:45.012Z,1013.96
2018-05-23T08:39:54.202Z,1013.97
2018-05-23T08:41:04.235Z,1013.94
2018-05-23T08:42:12.885Z,1013.95
2018-05-23T08:43:22.296Z,1013.96
2018-05-23T08:44:31.996Z,1013.95
2018-05-23T08:45:41.452Z,1013.96
2018-05-23T08:46:51.148Z,1013.96
2018-05-23T08:48:00.306Z,1013.94
2018-05-23T08:49:09.475Z,1013.92
2018-05-23T08:50:18.642Z,1013.95
2018-05-23T08:51:28.332Z,1013.96
2018-05-23T08:52:37.820Z,1013.98
2018-05-23T08:53:47.301Z,1013.99
2018-05-23T08:54:56.758Z,1014
2018-05-23T08:56:05.943Z,1013.97
2018-05-23T08:57:15.139Z,1013.97
2018-05-23T08:58:24.830Z,1013.97
2018-05-23T08:59:33.746Z,1013.96
2018-05-23T09:00:43.174Z,1013.99
2018-05-23T09:01:52.917Z,1014.02
2018-05-23T09:03:02.089Z,1014.02
2018-05-23T09:04:11.275Z,1014.01
2018-05-23T09:05:20.703Z,1014.06
2018-05-23T09:06:30.410Z,1014.05
2018-05-23T09:07:39.084Z,1014.01
2018-05-23T09:08:48.529Z,1014.01
2018-05-23T09:09:58.237Z,1014.02
2018-05-23T09:11:08.424Z,1014.02
2018-05-23T09:12:17.654Z,1014.06
2018-05-23T09:13:27.607Z,1014.07
2018-05-23T09:14:37.049Z,1014.1
2018-05-23T09:15:46.269Z,1014.07
2018-05-23T09:16:54.926Z,1014.12
2018-05-23T09:18:04.361Z,1014.13
2018-05-23T09:19:13.531Z,1014.13
2018-05-23T09:20:22.718Z,1014.14
2018-05-23T09:21:32.418Z,1014.17
2018-05-23T09:22:41.589Z,1014.17
2018-05-23T09:23:51.293Z,1014.2
2018-05-23T09:25:00.481Z,1014.18
2018-05-23T09:26:09.927Z,1014.18
2018-05-23T09:27:19.434Z,1014.2
2018-05-23T09:28:28.603Z,1014.21
2018-05-23T09:29:37.801Z,1014.25
2018-05-23T09:30:47.028Z,1014.23
2018-05-23T09:31:56.748Z,1014.22
2018-05-23T09:33:06.513Z,1014.22
2018-05-23T09:34:15.683Z,1014.23
2018-05-23T09:35:25.139Z,1014.24
2018-05-23T09:36:34.332Z,1014.28
2018-05-23T09:37:43.256Z,1014.26
2018-05-23T09:38:52.719Z,1014.31
2018-05-23T09:40:02.148Z,1014.29
2018-05-23T09:41:11.343Z,1014.31
2018-05-23T09:42:20.541Z,1014.32
2018-05-23T09:43:29.728Z,1014.31
2018-05-23T09:44:38.926Z,1014.3
2018-05-23T09:45:48.132Z,1014.32
2018-05-23T09:46:57.331Z,1014.36
2018-05-23T09:48:06.773Z,1014.36
2018-05-23T09:49:15.975Z,1014.37
2018-05-23T09:50:25.400Z,1014.36
2018-05-23T09:51:34.585Z,1014.33
2018-05-23T09:52:44.048Z,1014.34
2018-05-23T09:53:53.772Z,1014.38
2018-05-23T09:55:03.037Z,1014.32
2018-05-23T09:56:13.052Z,1014.33
2018-05-23T09:57:22.744Z,1014.33
2018-05-23T09:58:32.458Z,1014.35
2018-05-23T09:59:42.162Z,1014.32
2018-05-23T10:00:51.612Z,1014.35
2018-05-23T10:02:01.059Z,1014.36
2018-05-23T10:03:09.975Z,1014.36
2018-05-23T10:04:19.709Z,1014.42
2018-05-23T10:05:29.161Z,1014.44
2018-05-23T10:06:38.340Z,1014.46
2018-05-23T10:07:47.533Z,1014.46
2018-05-23T10:08:56.984Z,1014.4
2018-05-23T10:10:05.653Z,1014.41
2018-05-23T10:11:15.124Z,1014.41
2018-05-23T10:12:24.042Z,1014.45
2018-05-23T10:13:33.760Z,1014.45
2018-05-23T10:14:43.455Z,1014.48
2018-05-23T10:15:52.659Z,1014.47
2018-05-23T10:17:01.610Z,1014.5
2018-05-23T10:18:11.308Z,1014.43
2018-05-23T10:19:20.235Z,1014.48
2018-05-23T10:20:30.179Z,1014.47
2018-05-23T10:21:40.066Z,1014.5
2018-05-23T10:22:49.255Z,1014.49
2018-05-23T10:23:58.710Z,1014.45
2018-05-23T10:25:08.446Z,1014.49
2018-05-23T10:26:17.968Z,1014.49
2018-05-23T10:27:28.017Z,1014.53
2018-05-23T10:28:37.770Z,1014.53
2018-05-23T10:29:47.753Z,1014.5
2018-05-23T10:30:57.552Z,1014.57
2018-05-23T10:32:06.980Z,1014.55
2018-05-23T10:33:15.926Z,1014.52
2018-05-23T10:34:25.780Z,1014.58
2018-05-23T10:35:34.968Z,1014.59
2018-05-23T10:36:44.708Z,1014.57
2018-05-23T10:37:54.433Z,1014.58
2018-05-23T10:39:04.245Z,1014.65
2018-05-23T10:40:14.246Z,1014.71
2018-05-23T10:41:24.222Z,1014.72
2018-05-23T10:42:33.396Z,1014.75
2018-05-23T10:43:43.131Z,1014.72
2018-05-23T10:44:52.614Z,1014.74
2018-05-23T10:46:01.758Z,1014.77
2018-05-23T10:47:11.238Z,1014.78
2018-05-23T10:48:20.418Z,1014.76
2018-05-23T10:49:30.113Z,1014.8
2018-05-23T10:50:39.309Z,1014.85
2018-05-23T10:51:48.991Z,1014.84
2018-05-23T10:52:58.537Z,1014.86
2018-05-23T10:54:08.270Z,1014.82
2018-05-23T10:55:17.459Z,1014.88
2018-05-23T10:56:26.927Z,1014.86
2018-05-23T10:57:36.676Z,1014.87
2018-05-23T10:58:45.881Z,1014.9
2018-05-23T10:59:55.062Z,1014.9
2018-05-23T11:01:04.521Z,1014.91
2018-05-23T11:02:13.960Z,1014.93
2018-05-23T11:03:24.089Z,1014.92
2018-05-23T11:04:33.030Z,1014.94
2018-05-23T11:05:42.551Z,1014.95
2018-05-23T11:06:52.998Z,1014.96
2018-05-23T11:08:01.982Z,1014.98
2018-05-23T11:09:11.392Z,1014.97
2018-05-23T11:10:20.592Z,1015.03
2018-05-23T11:11:30.033Z,1015.01
2018-05-23T11:12:39.532Z,1015.03
2018-05-23T11:13:49.282Z,1015.08
2018-05-23T11:14:58.529Z,1015.05
2018-05-23T11:16:08.452Z,1015.06
2018-05-23T11:17:17.405Z,1015.11
2018-05-23T11:18:26.931Z,1015.09
2018-05-23T11:19:36.401Z,1015.11
2018-05-23T11:20:46.213Z,1015.11
2018-05-23T11:21:55.728Z,1015.1
2018-05-23T11:23:05.024Z,1015.14
2018-05-23T11:24:14.528Z,1015.15
2018-05-23T11:25:24.020Z,1015.12
2018-05-23T11:26:33.807Z,1015.15
2018-05-23T11:27:43.031Z,1015.17
2018-05-23T11:28:52.278Z,1015.19
2018-05-23T11:30:01.535Z,1015.14
2018-05-23T11:31:10.710Z,1015.21
2018-05-23T11:32:19.922Z,1015.18
2018-05-23T11:33:29.401Z,1015.21
2018-05-23T11:34:38.653Z,1015.19
2018-05-23T11:35:48.393Z,1015.18
2018-05-23T11:36:58.152Z,1015.17
2018-05-23T11:38:07.949Z,1015.16
2018-05-23T11:39:17.455Z,1015.12
2018-05-23T11:40:26.660Z,1015.14
2018-05-23T11:41:36.149Z,1015.14
2018-05-23T11:42:45.135Z,1015.16
2018-05-23T11:43:54.680Z,1015.16
2018-05-23T11:45:04.502Z,1015.18
2018-05-23T11:46:14.236Z,1015.13
2018-05-23T11:47:24.319Z,1015.15
2018-05-23T11:48:33.554Z,1015.14
2018-05-23T11:49:43.071Z,1015.11
2018-05-23T11:50:52.558Z,1015.11
2018-05-23T11:52:02.050Z,1015.13
2018-05-23T11:53:11.673Z,1015.1
2018-05-23T11:54:20.599Z,1015.1
2018-05-23T11:55:29.813Z,1015.1
2018-05-23T11:56:38.488Z,1015.09
2018-05-23T11:57:48.206Z,1015.07
2018-05-23T11:58:57.944Z,1015.11
2018-05-23T12:00:07.692Z,1015.07
2018-05-23T12:01:16.401Z,1015.06
2018-05-23T12:02:25.955Z,1015.02
2018-05-23T12:03:35.460Z,1015.02
2018-05-23T12:04:44.950Z,1015
2018-05-23T12:05:54.702Z,1014.99
2018-05-23T12:07:03.620Z,1014.99
2018-05-23T12:08:13.092Z,1014.99
2018-05-23T12:09:22.538Z,1015.02
2018-05-23T12:10:31.850Z,1015
2018-05-23T12:11:41.804Z,1014.96
2018-05-23T12:12:50.519Z,1014.98
2018-05-23T12:14:00.003Z,1014.96
2018-05-23T12:15:09.148Z,1014.95
2018-05-23T12:16:18.570Z,1014.95
2018-05-23T12:17:28.067Z,1014.94
2018-05-23T12:18:37.011Z,1014.92
2018-05-23T12:19:46.607Z,1014.91
2018-05-23T12:20:55.883Z,1014.91
2018-05-23T12:22:05.626Z,1014.89
2018-05-23T12:23:14.809Z,1014.88
2018-05-23T12:24:24.051Z,1014.85
2018-05-23T12:25:34.057Z,1014.84
2018-05-23T12:26:43.012Z,1014.82
2018-05-23T12:27:52.461Z,1014.82
2018-05-23T12:29:01.703Z,1014.82
2018-05-23T12:30:10.902Z,1014.83
2018-05-23T12:31:20.090Z,1014.8
2018-05-23T12:32:29.266Z,1014.77
2018-05-23T12:33:38.973Z,1014.79
2018-05-23T12:34:48.682Z,1014.77
2018-05-23T12:35:58.632Z,1014.78
2018-05-23T12:37:07.327Z,1014.78
2018-05-23T12:38:16.295Z,1014.76
2018-05-23T12:39:25.772Z,1014.78
2018-05-23T12:40:35.224Z,1014.73
2018-05-23T12:41:44.922Z,1014.73
2018-05-23T12:42:54.390Z,1014.73
2018-05-23T12:44:03.827Z,1014.69
2018-05-23T12:45:13.502Z,1014.7
2018-05-23T12:46:22.980Z,1014.69
2018-05-23T12:47:31.925Z,1014.67
2018-05-23T12:48:41.661Z,1014.67
2018-05-23T12:49:50.877Z,1014.68
2018-05-23T12:51:00.325Z,1014.69
2018-05-23T12:52:09.847Z,1014.6
2018-05-23T12:53:19.079Z,1014.59
2018-05-23T12:54:29.060Z,1014.59
2018-05-23T12:55:39.055Z,1014.61
2018-05-23T12:56:48.585Z,1014.54
2018-05-23T12:57:57.834Z,1014.55
2018-05-23T12:59:07.019Z,1014.53
2018-05-23T13:00:16.247Z,1014.48
2018-05-23T13:01:25.459Z,1014.52
2018-05-23T13:02:34.401Z,1014.53
2018-05-23T13:03:43.662Z,1014.54
2018-05-23T13:04:53.434Z,1014.49
2018-05-23T13:06:03.263Z,1014.51
2018-05-23T13:07:12.815Z,1014.45
2018-05-23T13:08:22.276Z,1014.42
2018-05-23T13:09:32.042Z,1014.38
2018-05-23T13:10:41.506Z,1014.35
2018-05-23T13:11:51.021Z,1014.38
2018-05-23T13:13:00.513Z,1014.36
2018-05-23T13:14:09.995Z,1014.32
2018-05-23T13:15:19.169Z,1014.34
2018-05-23T13:16:29.157Z,1014.38
2018-05-23T13:17:38.592Z,1014.4
2018-05-23T13:18:48.373Z,1014.47
2018-05-23T13:19:57.813Z,1014.39
2018-05-23T13:21:07.304Z,1014.41
2018-05-23T13:22:17.070Z,1014.41
2018-05-23T13:23:26.266Z,1014.36
2018-05-23T13:24:35.951Z,1014.36
2018-05-23T13:25:44.890Z,1014.35
2018-05-23T13:26:54.791Z,1014.32
2018-05-23T13:28:03.731Z,1014.33
2018-05-23T13:29:13.467Z,1014.33
2018-05-23T13:30:23.328Z,1014.28
2018-05-23T13:31:32.311Z,1014.29
2018-05-23T13:32:41.509Z,1014.28
2018-05-23T13:33:51.232Z,1014.31
2018-05-23T13:35:00.814Z,1014.27
2018-05-23T13:36:10.380Z,1014.31
2018-05-23T13:37:19.619Z,1014.29
2018-05-23T13:38:29.078Z,1014.28
2018-05-23T13:39:38.255Z,1014.33
2018-05-23T13:40:47.683Z,1014.3
2018-05-23T13:41:57.151Z,1014.26
2018-05-23T13:43:06.407Z,1014.32
2018-05-23T13:44:15.860Z,1014.28
2018-05-23T13:45:25.614Z,1014.26
2018-05-23T13:46:34.673Z,1014.25
2018-05-23T13:47:43.932Z,1014.21
2018-05-23T13:48:53.444Z,1014.19
2018-05-23T13:50:02.930Z,1014.2
2018-05-23T13:51:11.866Z,1014.19
2018-05-23T13:52:20.780Z,1014.19
2018-05-23T13:53:29.969Z,1014.19
2018-05-23T13:54:39.146Z,1014.18
2018-05-23T13:55:48.592Z,1014.15
2018-05-23T13:56:57.751Z,1014.17
2018-05-23T13:58:06.918Z,1014.13
2018-05-23T13:59:16.182Z,1014.14
2018-05-23T14:00:25.363Z,1014.13
2018-05-23T14:01:35.053Z,1014.15
2018-05-23T14:02:44.557Z,1014.15